Time;durP1;ratioP1;P1;durP2;ratioP2;P2;SDS_P1;SDS_P2;PMS_P1;PMS_P2;Temp;Humidity;BMP_temperature;BMP_pressure;BME280_temperature;BME280_humidity;BME280_pressure;Samples;Min_cycle;Max_cycle;Signal;HPM_P1;HPM_P2
2022/06/12 00:02:02;;;;;;;6.03;4.57;;;;;;;19.93;80.26;100460.63;5073292;28;20040;-74
2022/06/12 00:04:32;;;;;;;5.60;4.70;;;;;;;19.97;80.62;100462.03;5072240;28;20135;-74
2022/06/12 00:07:00;;;;;;;6.25;4.78;;;;;;;19.86;81.46;100461.38;5073272;28;20072;-74
2022/06/12 00:09:29;;;;;;;6.93;4.38;;;;;;;19.92;80.50;100458.94;5073177;28;20402;-74
2022/06/12 00:11:57;;;;;;;5.43;4.43;;;;;;;19.95;79.69;100458.63;5073314;28;20063;-74
2022/06/12 00:14:25;;;;;;;6.95;4.63;;;;;;;20.07;78.02;100461.16;5072112;28;20078;-73
2022/06/12 00:16:54;;;;;;;5.57;4.20;;;;;;;20.13;76.89;100461.41;5073074;28;20044;-74
2022/06/12 00:19:23;;;;;;;6.65;4.22;;;;;;;20.04;75.20;100467.72;5072997;28;20044;-74
2022/06/12 00:21:53;;;;;;;6.97;3.70;;;;;;;20.03;74.62;100460.59;5073104;28;20481;-74
2022/06/12 00:24:22;;;;;;;8.40;4.00;;;;;;;20.07;73.48;100456.59;5073277;28;20048;-74
2022/06/12 00:26:52;;;;;;;4.75;3.60;;;;;;;20.02;72.81;100459.75;5072989;28;20042;-74
2022/06/12 00:29:23;;;;;;;5.15;3.88;;;;;;;20.00;71.50;100455.50;5073438;28;20044;-73
2022/06/12 00:31:56;;;;;;;5.65;3.70;;;;;;;19.96;71.78;100451.34;5071763;28;20486;-74
2022/06/12 00:34:26;;;;;;;;;;;;;;;19.92;70.08;100458.94;5072471;28;20424;-73
2022/06/12 00:36:56;;;;;;;5.82;3.47;;;;;;;20.00;67.63;100444.66;5072597;28;19927;-73
2022/06/12 00:39:25;;;;;;;6.65;3.75;;;;;;;20.10;65.65;100434.66;5075402;28;20086;-73
2022/06/12 00:41:56;;;;;;;5.75;3.30;;;;;;;20.02;65.88;100432.66;5078612;28;20454;-74
2022/06/12 00:44:30;;;;;;;6.30;3.58;;;;;;;19.99;67.07;100424.84;5083839;28;20090;-75
2022/06/12 00:47:00;;;;;;;5.10;3.55;;;;;;;19.94;67.08;100435.25;5078059;28;20040;-74
2022/06/12 00:49:31;;;;;;;6.05;3.70;;;;;;;19.77;68.31;100425.19;5076050;28;20040;-74
2022/06/12 00:52:07;;;;;;;5.03;3.38;;;;;;;19.69;68.80;100425.09;5077029;28;20393;-73
2022/06/12 00:54:38;;;;;;;5.35;3.47;;;;;;;19.88;68.16;100427.75;5076962;28;20501;-73
2022/06/12 00:57:08;;;;;;;7.20;3.80;;;;;;;19.84;68.82;100429.03;5076876;28;20044;-74
2022/06/12 00:59:49;;;;;;;7.55;3.90;;;;;;;19.79;69.23;100420.53;5077013;28;20051;-74
2022/06/12 01:02:26;;;;;;;5.20;3.60;;;;;;;19.69;69.56;100419.69;5076796;28;20485;-73
2022/06/12 01:07:45;;;;;;;5.35;3.40;;;;;;;19.59;70.51;100417.00;5076852;28;20102;-72
2022/06/12 01:10:16;;;;;;;4.80;3.65;;;;;;;19.68;69.97;100412.56;5076673;28;20040;-73
2022/06/12 01:12:50;;;;;;;4.93;3.63;;;;;;;19.74;69.96;100411.97;5076217;28;20394;-74
2022/06/12 01:15:23;;;;;;;6.70;3.90;;;;;;;19.79;69.76;100411.53;5076825;28;20397;-73
2022/06/12 01:17:53;;;;;;;;;;;;;;;19.64;71.47;100412.00;5076841;28;20466;-74
2022/06/12 01:20:25;;;;;;;6.18;3.85;;;;;;;19.58;72.84;100417.97;5076328;28;19979;-74
2022/06/12 01:23:37;;;;;;;7.95;4.00;;;;;;;19.53;73.85;100411.28;5076417;28;20050;-73
2022/06/12 01:26:27;;;;;;;10.45;4.15;;;;;;;19.47;74.85;100411.88;5076338;28;20044;-73
2022/06/12 01:29:02;;;;;;;6.55;3.97;;;;;;;19.54;74.69;100421.97;5076273;28;20048;-73
2022/06/12 01:31:43;;;;;;;5.13;3.85;;;;;;;19.51;74.74;100416.00;5076047;28;20051;-73
2022/06/12 01:34:35;;;;;;;7.07;4.43;;;;;;;19.55;74.94;100406.59;5076315;28;20539;-74
2022/06/12 01:37:19;;;;;;;5.90;3.90;;;;;;;19.59;73.92;100417.00;5076099;28;20044;-73
2022/06/12 01:39:55;;;;;;;7.25;3.80;;;;;;;19.54;73.88;100411.13;5076098;28;20045;-74
2022/06/12 01:42:30;;;;;;;5.70;4.05;;;;;;;19.48;74.26;100405.44;5075940;28;20119;-73
2022/06/12 01:45:12;;;;;;;6.55;4.00;;;;;;;19.50;73.93;100408.88;5076044;28;20394;-73
2022/06/12 01:47:50;;;;;;;5.93;4.32;;;;;;;19.50;73.81;100408.88;5076139;28;20066;-73
2022/06/12 01:50:23;;;;;;;6.50;3.78;;;;;;;19.43;73.97;100414.88;5074830;28;20062;-73
2022/06/12 01:53:01;;;;;;;6.65;4.05;;;;;;;19.41;73.66;100406.06;5075681;28;20051;-73
2022/06/12 01:55:41;;;;;;;6.60;3.63;;;;;;;19.51;72.37;100402.47;5075743;28;20045;-73
2022/06/12 01:58:16;;;;;;;5.22;3.70;;;;;;;19.38;73.53;100405.47;5075609;28;20047;-73
2022/06/12 02:00:52;;;;;;;6.95;4.03;;;;;;;19.41;73.52;100406.06;5075927;28;20055;-73
2022/06/12 02:03:28;;;;;;;5.07;3.85;;;;;;;19.39;72.88;100410.72;5075835;28;20052;-74
2022/06/12 02:06:03;;;;;;;6.57;4.03;;;;;;;19.32;73.09;100406.91;5075399;28;20139;-74
2022/06/12 02:08:38;;;;;;;6.95;3.40;;;;;;;19.21;73.62;100409.78;5075511;28;20045;-74
2022/06/12 02:14:00;;;;;;;6.63;3.80;;;;;;;19.20;72.91;100409.91;5074382;28;20062;-75
2022/06/12 02:16:34;;;;;;;5.45;3.58;;;;;;;19.44;71.02;100400.34;5075591;28;20044;-75
2022/06/12 02:19:12;;;;;;;4.90;3.50;;;;;;;19.37;71.20;100409.19;5074051;28;20102;-71
2022/06/12 02:21:48;;;;;;;5.53;3.65;;;;;;;19.35;71.31;100414.75;5075567;28;20041;-71
2022/06/12 02:24:21;;;;;;;6.38;3.80;;;;;;;19.37;70.47;100414.59;5075148;28;20477;-69
2022/06/12 02:26:58;;;;;;;6.70;3.60;;;;;;;19.35;71.01;100412.03;5075328;28;20540;-69
2022/06/12 02:29:32;;;;;;;4.28;3.33;;;;;;;19.27;71.36;100420.00;5075056;28;20490;-69
2022/06/12 02:32:08;;;;;;;5.55;3.58;;;;;;;19.39;69.79;100413.44;5073667;28;20489;-72
2022/06/12 02:34:41;;;;;;;5.10;3.25;;;;;;;19.23;70.89;100412.34;5075263;28;20048;-72
2022/06/12 02:37:14;;;;;;;6.95;4.28;;;;;;;19.25;71.03;100416.59;5074988;28;20040;-71
2022/06/12 02:39:46;;;;;;;6.53;3.97;;;;;;;19.29;71.07;100425.25;5075172;28;20397;-71
2022/06/12 02:42:18;;;;;;;4.65;3.58;;;;;;;19.41;70.07;100422.28;5074731;28;20063;-71
2022/06/12 02:44:52;;;;;;;5.80;3.65;;;;;;;19.29;70.96;100418.00;5075175;28;20086;-71
2022/06/12 02:47:25;;;;;;;5.43;3.50;;;;;;;19.30;71.13;100416.16;5074783;28;20046;-70
2022/06/12 02:49:54;;;;;;;;;;;;;;;19.30;70.03;100421.56;5075094;28;20040;-70
2022/06/12 02:52:29;;;;;;;4.72;3.33;;;;;;;19.29;70.01;100417.16;5074944;28;20384;-71
2022/06/12 02:55:08;;;;;;;5.97;3.80;;;;;;;19.09;71.22;100416.31;5074630;28;20045;-72
2022/06/12 02:57:43;;;;;;;5.10;3.40;;;;;;;19.19;69.85;100417.16;5074695;28;20501;-70
2022/06/12 03:00:17;;;;;;;5.75;3.20;;;;;;;19.06;71.73;100424.72;5073153;28;20546;-70
2022/06/12 03:02:54;;;;;;;4.90;3.35;;;;;;;19.04;70.87;100429.44;5074498;28;20040;-70
2022/06/12 03:05:27;;;;;;;5.20;3.30;;;;;;;19.01;71.10;100424.28;5074453;28;20036;-70
2022/06/12 03:08:00;;;;;;;5.00;3.60;;;;;;;19.10;70.64;100428.84;5074280;28;20037;-69
2022/06/12 03:10:31;;;;;;;;;;;;;;;18.96;71.12;100431.97;5075246;28;20059;-70
2022/06/12 03:13:01;;;;;;;5.00;3.55;;;;;;;19.06;70.40;100427.44;5074178;28;19927;-70
2022/06/12 03:15:38;;;;;;;5.85;3.65;;;;;;;19.19;70.25;100427.97;5074324;28;20053;-70
2022/06/12 03:18:13;;;;;;;5.57;3.60;;;;;;;19.23;69.61;100434.81;5074100;28;20072;-70
2022/06/12 03:20:58;;;;;;;5.43;3.47;;;;;;;19.40;68.59;100436.81;5074427;28;20041;-70
2022/06/12 03:23:38;;;;;;;6.82;3.78;;;;;;;19.55;68.06;100429.06;5074383;28;20055;-70
2022/06/12 03:26:16;;;;;;;5.18;3.22;;;;;;;19.61;67.60;100427.69;5074029;28;20036;-70
2022/06/12 03:28:51;;;;;;;4.75;3.40;;;;;;;19.83;66.80;100427.34;5073301;28;20417;-69
2022/06/12 03:31:24;;;;;;;5.30;3.40;;;;;;;19.89;66.95;100425.91;5074323;28;20044;-70
2022/06/12 03:34:02;;;;;;;6.03;3.55;;;;;;;20.20;65.81;100429.19;5073896;28;20036;-72
2022/06/12 03:36:36;;;;;;;7.05;3.33;;;;;;;20.52;64.04;100429.59;5074150;28;20046;-71
2022/06/12 03:39:13;;;;;;;6.78;3.33;;;;;;;21.19;62.12;100442.81;5073247;28;20048;-72
2022/06/12 03:41:51;;;;;;;5.83;3.57;;;;;;;21.84;58.84;100432.50;5073483;28;20051;-72
2022/06/12 03:44:27;;;;;;;6.35;3.30;;;;;;;22.75;56.21;100428.13;5072668;28;20052;-72
2022/06/12 03:47:02;;;;;;;6.90;3.20;;;;;;;22.96;55.33;100433.13;5073712;28;20125;-72
2022/06/12 03:49:35;;;;;;;4.82;3.40;;;;;;;23.40;53.34;100430.94;5073753;28;20040;-72
2022/06/12 03:52:12;;;;;;;4.50;3.30;;;;;;;23.95;51.69;100427.50;5073163;28;20478;-71
2022/06/12 03:54:47;;;;;;;6.22;2.95;;;;;;;24.18;50.67;100434.91;5073398;28;20115;-71
2022/06/12 04:00:13;;;;;;;4.32;2.80;;;;;;;24.23;50.40;100441.53;5073478;28;20040;-71
2022/06/12 04:02:42;;;;;;;4.30;3.00;;;;;;;24.54;49.66;100438.88;5073505;28;20478;-70
2022/06/12 04:05:19;;;;;;;4.68;3.03;;;;;;;24.89;48.41;100446.69;5073327;28;20540;-70
2022/06/12 04:07:51;;;;;;;5.30;2.90;;;;;;;25.07;48.02;100448.13;5073630;28;20044;-70
2022/06/12 04:10:23;;;;;;;4.43;2.75;;;;;;;25.23;47.93;100454.50;5073663;28;20072;-70
2022/06/12 04:12:52;;;;;;;4.35;2.88;;;;;;;24.80;47.87;100448.59;5073135;28;20048;-71
2022/06/12 04:15:26;;;;;;;4.97;2.83;;;;;;;25.23;46.56;100449.88;5072949;28;20124;-71
2022/06/12 04:17:55;;;;;;;5.32;2.90;;;;;;;25.67;45.85;100452.75;5073335;28;20041;-75
2022/06/12 04:20:32;;;;;;;4.10;2.55;;;;;;;26.38;44.14;100449.66;5073794;28;20047;-72
2022/06/12 04:23:04;;;;;;;6.55;3.10;;;;;;;26.28;44.00;100443.59;5073147;28;20399;-72
2022/06/12 04:25:42;;;;;;;4.40;2.80;;;;;;;26.73;41.76;100454.31;5073560;28;20047;-72
2022/06/12 04:28:26;;;;;;;5.45;2.40;;;;;;;25.93;42.63;100449.59;5073065;28;20041;-72
2022/06/12 04:30:55;;;;;;;4.85;3.03;;;;;;;25.64;43.33;100464.03;5073080;28;20396;-76
2022/06/12 04:33:58;;;;;;;6.35;2.60;;;;;;;25.78;43.13;100453.38;5073410;28;20041;-70
2022/06/12 04:36:27;;;;;;;4.10;2.47;;;;;;;25.49;44.36;100454.97;5073248;28;20392;-72
2022/06/12 04:38:56;;;;;;;6.80;2.60;;;;;;;26.01;43.14;100453.28;5072404;28;20068;-73
2022/06/12 04:41:29;;;;;;;5.10;2.60;;;;;;;26.44;41.63;100460.69;5073108;28;20124;-71
2022/06/12 04:43:57;;;;;;;4.07;2.60;;;;;;;26.17;42.68;100453.97;5072954;28;20086;-71
2022/06/12 04:46:26;;;;;;;3.28;2.10;;;;;;;25.92;42.90;100458.84;5073060;28;20060;-71
2022/06/12 04:48:57;;;;;;;5.32;2.70;;;;;;;26.50;41.33;100456.31;5073034;28;20099;-70
2022/06/12 04:51:27;;;;;;;6.07;2.63;;;;;;;27.02;39.99;100463.47;5073073;28;20047;-70
2022/06/12 04:53:55;;;;;;;6.00;2.70;;;;;;;27.13;40.13;100453.94;5072778;28;20056;-70
2022/06/12 04:56:28;;;;;;;4.90;2.60;;;;;;;27.47;39.38;100451.31;5072949;28;20553;-70
2022/06/12 04:58:57;;;;;;;3.25;2.47;;;;;;;27.90;38.39;100464.97;5072357;28;20045;-72
2022/06/12 05:01:25;;;;;;;3.53;2.33;;;;;;;27.10;39.69;100452.41;5073084;28;20040;-70
2022/06/12 05:03:57;;;;;;;6.30;2.58;;;;;;;28.06;38.12;100455.56;5072990;28;20091;-77
2022/06/12 05:06:28;;;;;;;5.85;2.40;;;;;;;28.22;37.74;100452.53;5072888;28;20080;-70
2022/06/12 05:08:57;;;;;;;6.07;2.60;;;;;;;27.56;38.37;100454.75;5072852;28;20098;-77
2022/06/12 05:11:25;;;;;;;4.07;2.58;;;;;;;28.10;37.86;100443.19;5072211;28;20448;-70
2022/06/12 05:13:54;;;;;;;5.30;2.40;;;;;;;27.10;39.39;100450.53;5072736;28;20397;-71
2022/06/12 05:16:30;;;;;;;5.20;2.42;;;;;;;27.52;38.63;100450.72;5072839;28;20041;-71
2022/06/12 05:18:59;;;;;;;4.28;2.40;;;;;;;28.17;37.10;100457.75;5072214;28;20041;-72
2022/06/12 05:21:30;;;;;;;5.03;2.58;;;;;;;27.52;38.57;100464.44;5071601;28;20051;-70
2022/06/12 05:23:59;;;;;;;5.95;2.60;;;;;;;27.45;38.23;100456.13;5072600;28;20051;-71
2022/06/12 05:26:28;;;;;;;4.47;2.60;;;;;;;28.63;36.69;100457.19;5076007;28;20116;-69
2022/06/12 05:28:56;;;;;;;4.53;2.80;;;;;;;27.73;38.01;100456.19;5076333;28;20128;-70
2022/06/12 05:31:24;;;;;;;3.80;2.33;;;;;;;28.44;36.71;100467.84;5076448;28;20052;-70
2022/06/12 05:33:54;;;;;;;3.75;2.58;;;;;;;28.74;36.16;100459.31;5076053;28;20045;-71
2022/06/12 05:36:24;;;;;;;4.95;2.45;;;;;;;29.08;35.55;100462.00;5076130;28;20045;-70
2022/06/12 05:38:54;;;;;;;4.72;2.70;;;;;;;28.95;34.94;100469.34;5075909;28;20127;-73
2022/06/12 05:41:22;;;;;;;5.70;2.78;;;;;;;29.32;35.01;100478.94;5075561;28;20066;-74
2022/06/12 05:43:50;;;;;;;5.28;2.50;;;;;;;29.62;34.93;100474.75;5074836;28;20075;-71
2022/06/12 05:46:20;;;;;;;5.20;2.38;;;;;;;29.79;34.65;100475.19;5074794;28;20269;-71
2022/06/12 05:48:48;;;;;;;5.32;2.78;;;;;;;29.47;34.72;100470.50;5074706;28;20053;-71
2022/06/12 05:51:18;;;;;;;3.63;2.63;;;;;;;30.00;34.05;100482.34;5074840;28;20067;-70
2022/06/12 05:53:47;;;;;;;4.13;2.40;;;;;;;29.58;34.74;100480.91;5075914;28;20437;-73
2022/06/12 05:56:20;;;;;;;5.45;2.45;;;;;;;29.24;35.67;100476.38;5075800;28;20076;-73
2022/06/12 05:58:47;;;;;;;;;;;;;;;28.88;36.10;100483.03;5076309;28;20036;-71
2022/06/12 06:01:20;;;;;;;5.03;2.40;;;;;;;29.86;34.68;100491.69;5075523;28;20262;-73
2022/06/12 06:03:49;;;;;;;5.68;2.80;;;;;;;30.19;33.75;100491.66;5075839;28;20397;-71
2022/06/12 06:06:21;;;;;;;6.35;2.70;;;;;;;29.86;34.61;100497.19;5075055;28;20127;-72
2022/06/12 06:08:50;;;;;;;4.82;2.40;;;;;;;29.55;35.02;100495.94;5075541;28;20058;-72
2022/06/12 06:11:20;;;;;;;5.60;2.72;;;;;;;30.16;34.37;100490.19;5074977;28;20071;-71
2022/06/12 06:13:48;;;;;;;5.00;2.70;;;;;;;29.90;34.38;100491.03;5075745;28;20037;-72
2022/06/12 06:16:17;;;;;;;4.68;2.35;;;;;;;29.68;34.21;100494.22;5075326;28;20123;-73
2022/06/12 06:18:45;;;;;;;4.00;2.40;;;;;;;29.58;35.31;100494.66;5075524;28;20102;-72
2022/06/12 06:21:16;;;;;;;5.35;2.50;;;;;;;29.88;35.28;100489.56;5075221;28;20123;-71
2022/06/12 06:23:48;;;;;;;4.03;2.47;;;;;;;29.64;34.76;100496.56;5074239;28;20053;-71
2022/06/12 06:26:19;;;;;;;5.20;2.55;;;;;;;29.64;34.77;100502.06;5075088;28;20043;-72
2022/06/12 06:28:52;;;;;;;4.07;2.75;;;;;;;29.99;34.43;100497.16;5075131;28;20090;-73
2022/06/12 06:31:21;;;;;;;6.82;2.60;;;;;;;29.99;34.30;100497.16;5074590;28;20486;-71
2022/06/12 06:33:49;;;;;;;4.90;2.70;;;;;;;30.47;33.71;100495.00;5074964;28;20036;-72
2022/06/12 06:36:18;;;;;;;5.72;2.55;;;;;;;30.28;34.10;100495.03;5074526;28;20393;-73
2022/06/12 06:38:46;;;;;;;4.97;2.90;;;;;;;28.66;36.69;100498.78;5073856;28;20123;-72
2022/06/12 06:41:15;;;;;;;4.43;2.65;;;;;;;28.71;36.98;100492.69;5074317;28;20048;-72
2022/06/12 06:46:30;;;;;;;5.35;2.65;;;;;;;30.26;35.39;100505.41;5074946;28;20094;-72
2022/06/12 06:49:00;;;;;;;4.57;2.60;;;;;;;30.60;34.37;100493.28;5074643;28;20119;-73
2022/06/12 06:51:29;;;;;;;4.15;2.42;;;;;;;30.22;34.34;100491.25;5074887;28;20127;-72
2022/06/12 06:53:59;;;;;;;5.45;2.67;;;;;;;29.43;35.19;100494.81;5074928;28;20054;-72
2022/06/12 06:56:27;;;;;;;3.67;2.50;;;;;;;29.29;36.09;100495.84;5074462;28;20383;-71
2022/06/12 06:58:56;;;;;;;5.65;2.88;;;;;;;29.49;37.04;100484.91;5074384;28;20044;-70
2022/06/12 07:01:24;;;;;;;5.43;2.72;;;;;;;29.22;37.18;100487.59;5074253;28;20055;-71
2022/06/12 07:03:54;;;;;;;4.40;2.97;;;;;;;29.11;37.66;100492.84;5074716;28;20072;-75
2022/06/12 07:06:22;;;;;;;6.22;3.13;;;;;;;28.74;37.77;100492.25;5074250;28;20036;-74
2022/06/12 07:08:54;;;;;;;4.43;2.72;;;;;;;28.11;39.33;100496.97;5074437;28;20044;-77
2022/06/12 07:11:23;;;;;;;3.78;2.80;;;;;;;28.02;38.88;100490.78;5078398;28;20397;-76
2022/06/12 07:13:53;;;;;;;4.53;2.92;;;;;;;27.92;38.54;100493.88;5074424;28;20417;-68
2022/06/12 07:16:22;;;;;;;3.60;2.60;;;;;;;27.67;39.34;100482.50;5074225;28;20044;-74
2022/06/12 07:18:51;;;;;;;5.13;2.60;;;;;;;27.79;39.92;100488.28;5074263;28;20045;-74
2022/06/12 07:21:22;;;;;;;4.80;3.10;;;;;;;27.24;40.83;100487.13;5074074;28;20040;-74
2022/06/12 07:23:50;;;;;;;5.93;2.85;;;;;;;27.51;39.63;100485.50;5074813;28;20036;-74
2022/06/12 07:26:21;;;;;;;4.28;2.70;;;;;;;27.28;40.99;100490.31;5073859;28;20040;-76
2022/06/12 07:28:51;;;;;;;4.47;2.70;;;;;;;27.32;39.72;100483.41;5072771;28;20048;-73
2022/06/12 07:31:21;;;;;;;4.03;2.75;;;;;;;26.96;40.39;100480.69;5073862;28;20052;-74
2022/06/12 07:33:49;;;;;;;5.63;2.75;;;;;;;26.75;41.28;100485.06;5074191;28;20453;-76
2022/06/12 07:36:19;;;;;;;5.03;3.00;;;;;;;26.42;42.00;100479.16;5072491;28;20060;-73
2022/06/12 07:38:50;;;;;;;4.47;2.80;;;;;;;26.74;42.91;100477.91;5073867;28;20452;-74
2022/06/12 07:41:38;;;;;;;5.78;3.00;;;;;;;26.43;41.85;100474.53;5073822;28;20387;-74
2022/06/12 07:44:07;;;;;;;4.15;2.60;;;;;;;26.33;38.86;100473.94;5074010;28;20534;-72
2022/06/12 07:46:36;;;;;;;4.18;2.35;;;;;;;26.16;38.66;100478.78;5073843;28;20044;-71
2022/06/12 07:49:05;;;;;;;3.83;2.60;;;;;;;26.50;40.42;100475.47;5071810;28;20056;-74
2022/06/12 07:51:33;;;;;;;6.47;2.95;;;;;;;26.43;40.63;100469.06;5073786;28;20135;-74
2022/06/12 07:54:03;;;;;;;5.47;2.50;;;;;;;26.13;41.79;100469.03;5073796;28;20040;-73
2022/06/12 07:56:32;;;;;;;5.07;3.00;;;;;;;26.24;40.63;100475.91;5073751;28;20049;-73
2022/06/12 07:59:00;;;;;;;4.22;2.60;;;;;;;26.21;40.65;100477.16;5073518;28;20043;-73
2022/06/12 08:01:30;;;;;;;5.50;2.70;;;;;;;26.12;40.44;100466.50;5072939;28;20055;-72
2022/06/12 08:03:58;;;;;;;4.78;2.80;;;;;;;26.22;41.55;100478.84;5072233;28;20045;-72
2022/06/12 08:06:27;;;;;;;3.80;2.55;;;;;;;26.13;40.94;100469.03;5072899;28;20040;-72
2022/06/12 08:08:57;;;;;;;5.53;2.88;;;;;;;26.19;40.89;100473.75;5073252;28;20556;-72
2022/06/12 08:11:31;;;;;;;6.00;2.70;;;;;;;26.08;40.18;100476.97;5071831;28;20056;-72
2022/06/12 08:14:00;;;;;;;4.88;2.80;;;;;;;26.11;40.99;100471.13;5071777;28;20521;-74
2022/06/12 08:16:29;;;;;;;5.63;3.10;;;;;;;25.73;41.97;100464.00;5073020;28;20097;-75
2022/06/12 08:18:58;;;;;;;5.57;3.20;;;;;;;25.92;41.19;100468.94;5072232;28;20040;-77
2022/06/12 08:21:27;;;;;;;5.88;2.65;;;;;;;25.86;41.00;100477.88;5073020;28;20071;-72
2022/06/12 08:23:58;;;;;;;5.07;2.65;;;;;;;26.04;40.55;100474.78;5072897;28;20040;-72
2022/06/12 08:26:30;;;;;;;3.92;2.38;;;;;;;25.80;39.54;100474.00;5073234;28;20432;-71
2022/06/12 08:29:03;;;;;;;4.78;2.70;;;;;;;25.94;41.02;100464.13;5072985;28;20040;-70
2022/06/12 08:31:40;;;;;;;3.67;2.55;;;;;;;25.94;42.55;100464.13;5073046;28;20132;-72
2022/06/12 08:34:12;;;;;;;5.95;2.85;;;;;;;25.94;41.30;100464.13;5072935;28;20127;-72
2022/06/12 08:36:40;;;;;;;6.23;2.83;;;;;;;25.79;40.56;100466.00;5072074;28;20063;-75
2022/06/12 08:39:09;;;;;;;5.70;2.70;;;;;;;25.88;40.52;100459.41;5072999;28;20068;-77
2022/06/12 08:41:43;;;;;;;4.13;2.88;;;;;;;25.71;42.23;100463.34;5073067;28;20072;-78
2022/06/12 08:44:23;;;;;;;3.97;2.70;;;;;;;25.75;42.29;100470.13;5072763;28;20078;-73
2022/06/12 08:47:03;;;;;;;8.40;3.13;;;;;;;25.92;43.60;100460.72;5073099;28;20048;-75
2022/06/12 08:49:37;;;;;;;6.00;3.25;;;;;;;25.92;43.04;100460.72;5072882;28;20287;-71
2022/06/12 08:52:10;;;;;;;5.75;2.97;;;;;;;25.92;42.37;100466.19;5073151;28;20040;-72
2022/06/12 08:54:44;;;;;;;5.43;2.95;;;;;;;26.23;42.53;100466.88;5072616;28;20040;-73
2022/06/12 08:57:17;;;;;;;3.60;2.60;;;;;;;26.24;42.39;100471.28;5071766;28;20045;-73
2022/06/12 08:59:55;;;;;;;4.22;3.10;;;;;;;25.94;41.82;100467.69;5073203;28;20049;-72
2022/06/12 09:02:28;;;;;;;3.95;2.60;;;;;;;26.10;41.81;100461.22;5076644;28;20397;-73
2022/06/12 09:04:56;;;;;;;;;;;;;;;26.11;42.21;100470.25;5077181;28;20115;-72
2022/06/12 09:07:35;;;;;;;4.25;2.85;;;;;;;26.07;42.56;100475.28;5076244;28;20426;-73
2022/06/12 09:10:09;;;;;;;5.80;2.85;;;;;;;26.18;42.54;100466.59;5076216;28;20052;-72
2022/06/12 09:12:45;;;;;;;4.88;3.05;;;;;;;26.12;41.04;100469.22;5075287;28;20144;-72
2022/06/12 09:15:24;;;;;;;7.10;3.33;;;;;;;26.20;41.70;100467.25;5075314;28;20049;-74
2022/06/12 09:18:00;;;;;;;5.30;3.00;;;;;;;26.34;42.97;100454.59;5076902;28;20040;-73
2022/06/12 09:20:35;;;;;;;4.93;2.90;;;;;;;26.69;40.73;100453.00;5076382;28;20044;-73
2022/06/12 09:23:11;;;;;;;5.10;2.67;;;;;;;26.18;40.93;100455.66;5076498;28;20071;-72
2022/06/12 09:25:50;;;;;;;4.60;2.97;;;;;;;26.06;42.61;100454.44;5076573;28;20040;-73
2022/06/12 09:28:40;;;;;;;6.78;2.92;;;;;;;26.14;42.97;100458.94;5076158;28;20036;-73
2022/06/12 09:31:18;;;;;;;5.70;3.05;;;;;;;26.37;42.25;100448.81;5076584;28;20115;-73
2022/06/12 09:33:55;;;;;;;5.80;2.75;;;;;;;26.30;42.03;100453.28;5076473;28;20040;-73
2022/06/12 09:36:56;;;;;;;5.40;2.70;;;;;;;26.73;41.75;100446.13;5074818;28;20412;-72
2022/06/12 09:39:41;;;;;;;4.72;2.95;;;;;;;27.13;42.17;100441.09;5075527;28;20119;-73
2022/06/12 09:42:19;;;;;;;6.32;3.10;;;;;;;26.57;40.67;100448.22;5074884;28;20063;-73
2022/06/12 09:44:52;;;;;;;4.60;2.88;;;;;;;26.70;41.31;100441.00;5076161;28;20062;-73
2022/06/12 09:47:34;;;;;;;5.53;3.10;;;;;;;26.80;40.07;100441.53;5074633;28;20063;-74
2022/06/12 09:50:25;;;;;;;4.28;2.95;;;;;;;26.65;39.97;100445.38;5076066;28;20485;-74
2022/06/12 09:53:11;;;;;;;5.25;3.15;;;;;;;26.70;40.10;100438.28;5076318;28;20170;-74
2022/06/12 09:55:45;;;;;;;6.55;3.10;;;;;;;26.79;40.58;100431.63;5075781;28;20389;-72
2022/06/12 09:58:22;;;;;;;7.45;2.95;;;;;;;27.11;40.69;100440.41;5075848;28;20102;-73
2022/06/12 10:00:54;;;;;;;4.15;3.13;;;;;;;27.29;40.28;100424.38;5075970;28;20048;-74
2022/06/12 10:03:33;;;;;;;4.82;3.10;;;;;;;27.24;39.29;100421.41;5075673;28;20128;-74
2022/06/12 10:06:08;;;;;;;4.55;2.92;;;;;;;27.01;40.13;100428.91;5074687;28;20359;-73
2022/06/12 10:08:41;;;;;;;5.07;3.13;;;;;;;26.84;41.45;100417.41;5075161;28;20048;-73
2022/06/12 10:11:15;;;;;;;3.63;3.03;;;;;;;26.61;40.76;100423.00;5073946;28;20079;-74
2022/06/12 10:13:51;;;;;;;5.43;3.15;;;;;;;26.63;40.70;100417.34;5075707;28;20094;-74
2022/06/12 10:16:26;;;;;;;4.20;3.03;;;;;;;26.67;41.71;100426.88;5075388;28;20040;-74
2022/06/12 10:19:20;;;;;;;4.45;2.85;;;;;;;26.54;42.03;100402.97;5074587;28;20060;-74
2022/06/12 10:21:53;;;;;;;5.70;3.10;;;;;;;26.76;41.94;100401.94;5075359;28;20493;-73
2022/06/12 10:24:22;;;;;;;4.60;3.00;;;;;;;27.07;41.18;100398.91;5075236;28;20037;-73
2022/06/12 10:26:57;;;;;;;3.67;2.83;;;;;;;27.27;40.29;100396.34;5074128;28;20135;-73
2022/06/12 10:29:26;;;;;;;6.43;2.97;;;;;;;27.33;40.55;100400.22;5075119;28;20067;-73
2022/06/12 10:32:01;;;;;;;5.32;3.10;;;;;;;27.34;40.09;100402.75;5075240;28;20076;-72
2022/06/12 10:34:33;;;;;;;9.05;2.95;;;;;;;27.10;39.95;100403.13;5073689;28;20500;-73
2022/06/12 10:37:11;;;;;;;5.47;3.10;;;;;;;26.51;41.22;100401.44;5075165;28;20044;-73
2022/06/12 10:39:40;;;;;;;4.15;3.10;;;;;;;26.65;40.94;100405.19;5073268;28;20301;-73
2022/06/12 10:42:30;;;;;;;5.28;3.17;;;;;;;26.59;42.23;100392.25;5074929;28;20044;-72
2022/06/12 10:45:00;;;;;;;5.00;2.90;;;;;;;26.84;41.59;100394.66;5075228;28;20056;-73
2022/06/12 10:47:31;;;;;;;5.13;2.90;;;;;;;26.93;39.62;100398.97;5074793;28;20044;-73
2022/06/12 10:50:19;;;;;;;4.53;3.10;;;;;;;27.22;40.07;100390.63;5075002;28;20466;-72
2022/06/12 10:52:56;;;;;;;4.22;3.03;;;;;;;27.10;38.29;100392.19;5075240;28;20379;-72
2022/06/12 10:55:42;;;;;;;5.60;3.00;;;;;;;27.17;39.24;100395.84;5074295;28;20063;-73
2022/06/12 10:58:29;;;;;;;4.57;2.75;;;;;;;26.90;39.06;100388.38;5074443;28;20053;-73
2022/06/12 11:01:03;;;;;;;4.70;3.28;;;;;;;26.92;38.63;100386.28;5074838;28;20067;-73
2022/06/12 11:03:40;;;;;;;5.07;2.83;;;;;;;27.09;38.94;100376.81;5074397;28;20037;-73
2022/06/12 11:06:16;;;;;;;5.40;2.80;;;;;;;27.36;38.77;100378.75;5074645;28;20040;-73
2022/06/12 11:09:07;;;;;;;5.95;3.20;;;;;;;27.59;38.59;100364.78;5074254;28;20119;-73
2022/06/12 11:11:51;;;;;;;5.10;3.10;;;;;;;27.67;38.06;100369.28;5074069;28;20451;-73
2022/06/12 11:14:34;;;;;;;4.78;2.97;;;;;;;27.47;39.11;100369.13;5073122;28;20054;-73
2022/06/12 11:17:15;;;;;;;5.22;3.13;;;;;;;27.54;39.26;100372.78;5074471;28;20040;-73
2022/06/12 11:19:58;;;;;;;4.82;3.17;;;;;;;27.34;39.58;100369.03;5074093;28;20098;-73
2022/06/12 11:22:46;;;;;;;4.93;3.35;;;;;;;27.21;39.48;100369.75;5073564;28;20063;-73
2022/06/12 11:25:33;;;;;;;5.40;3.25;;;;;;;27.37;40.84;100360.41;5073019;28;20048;-73
2022/06/12 11:28:18;;;;;;;6.00;3.30;;;;;;;27.64;42.09;100366.94;5074169;28;20094;-73
2022/06/12 11:30:57;;;;;;;4.95;2.75;;;;;;;27.56;40.74;100361.59;5072536;28;20056;-73
2022/06/12 11:33:45;;;;;;;6.28;2.90;;;;;;;27.63;41.71;100357.88;5073570;28;20123;-74
2022/06/12 11:36:24;;;;;;;5.15;3.28;;;;;;;27.61;39.43;100359.13;5074126;28;20041;-73
2022/06/12 11:39:16;;;;;;;3.70;2.78;;;;;;;27.73;40.54;100359.44;5073551;28;20052;-73
2022/06/12 11:41:56;;;;;;;4.75;3.00;;;;;;;27.96;38.69;100351.75;5073697;28;20055;-73
2022/06/12 11:44:37;;;;;;;5.72;2.85;;;;;;;27.95;38.35;100350.91;5073619;28;20076;-74
2022/06/12 11:47:15;;;;;;;4.15;2.78;;;;;;;27.93;39.59;100358.50;5073498;28;20048;-73
2022/06/12 11:49:56;;;;;;;4.97;3.30;;;;;;;27.83;39.64;100357.19;5072926;28;20098;-75
2022/06/12 11:52:43;;;;;;;4.68;2.83;;;;;;;28.01;38.98;100348.44;5071942;28;20132;-74
2022/06/12 11:55:29;;;;;;;4.85;2.90;;;;;;;28.06;38.36;100351.38;5073576;28;20040;-77
2022/06/12 11:58:08;;;;;;;5.88;3.03;;;;;;;28.21;39.41;100343.88;5073606;28;20044;-76
2022/06/12 12:00:48;;;;;;;5.60;3.20;;;;;;;28.17;39.52;100353.53;5073340;28;20044;-77
2022/06/12 12:03:31;;;;;;;5.15;3.38;;;;;;;27.71;38.78;100342.38;5073401;28;20040;-73
2022/06/12 12:06:17;;;;;;;4.65;3.13;;;;;;;27.66;39.33;100345.69;5072109;28;20144;-77
2022/06/12 12:09:00;;;;;;;4.15;2.92;;;;;;;27.42;39.37;100337.91;5073033;28;20049;-76
2022/06/12 12:11:34;;;;;;;4.82;3.45;;;;;;;27.55;39.50;100338.84;5072917;28;20040;-78